createdAt,value
2023-03-20T00:00:42.193Z,57.09
2023-03-20T00:03:44.168Z,57.19
2023-03-20T00:06:45.814Z,56.98
2023-03-20T00:09:47.818Z,57.42
2023-03-20T00:12:50.182Z,57.26
2023-03-20T00:15:56.493Z,57.53
2023-03-20T00:18:58.781Z,57.68
2023-03-20T00:22:00.850Z,57.43
2023-03-20T00:25:02.367Z,57.54
2023-03-20T00:28:28.614Z,57.21
2023-03-20T00:31:38.353Z,57.21
2023-03-20T00:34:39.883Z,57.18
2023-03-20T00:37:41.358Z,56.96
2023-03-20T00:40:42.955Z,57.40
2023-03-20T00:43:48.181Z,57.46
2023-03-20T00:46:54.003Z,57.50
2023-03-20T00:49:58.672Z,57.27
2023-03-20T00:53:00.670Z,57.69
2023-03-20T00:56:02.811Z,57.69
2023-03-20T00:59:04.884Z,57.70
2023-03-20T01:02:06.844Z,57.29
2023-03-20T01:05:08.661Z,56.99
2023-03-20T01:08:28.107Z,57.34
2023-03-20T01:11:29.638Z,57.32
2023-03-20T01:14:31.224Z,57.37
2023-03-20T01:17:32.903Z,57.35
2023-03-20T01:20:34.423Z,57.13
2023-03-20T01:23:35.920Z,57.26
2023-03-20T01:26:40.222Z,57.40
2023-03-20T01:29:42.184Z,56.98
2023-03-20T01:32:44.592Z,57.02
2023-03-20T01:35:48.058Z,57.00
2023-03-20T01:38:56.530Z,57.18
2023-03-20T01:41:58.674Z,57.53
2023-03-20T01:45:02.046Z,57.49
2023-03-20T01:48:16.949Z,57.44
2023-03-20T01:51:24.366Z,57.73
2023-03-20T01:54:37.422Z,57.43
2023-03-20T01:57:45.248Z,57.36
2023-03-20T02:00:49.108Z,57.61
2023-03-20T02:03:52.637Z,57.21
2023-03-20T02:07:20.152Z,57.74
2023-03-20T02:10:36.717Z,57.44
2023-03-20T02:13:55.722Z,57.52
2023-03-20T02:16:58.697Z,57.55
2023-03-20T02:20:32.913Z,57.41
2023-03-20T02:23:40.665Z,57.65
2023-03-20T02:27:08.856Z,57.51
2023-03-20T02:30:45.929Z,57.71
2023-03-20T02:34:03.647Z,57.78
2023-03-20T02:37:23.892Z,57.54
2023-03-20T02:40:37.012Z,57.82
2023-03-20T02:43:48.451Z,58.00
2023-03-20T02:47:16.457Z,58.04
2023-03-20T02:50:42.998Z,58.00
2023-03-20T02:53:55.353Z,57.61
2023-03-20T02:57:04.271Z,57.87
2023-03-20T03:00:14.020Z,57.74
2023-03-20T03:03:22.719Z,57.86
2023-03-20T03:06:31.476Z,57.86
2023-03-20T03:09:41.369Z,57.61
2023-03-20T03:12:46.955Z,57.88
2023-03-20T03:15:54.071Z,57.64
2023-03-20T03:19:18.614Z,57.72
2023-03-20T03:22:21.423Z,58.00
2023-03-20T03:25:27.016Z,58.04
2023-03-20T03:28:38.800Z,58.10
2023-03-20T03:31:41.232Z,58.03
2023-03-20T03:34:43.290Z,57.76
2023-03-20T03:38:06.579Z,58.11
2023-03-20T03:41:30.898Z,58.17
2023-03-20T03:44:42.853Z,57.89
2023-03-20T03:47:57.393Z,57.59
2023-03-20T03:51:05.792Z,57.63
2023-03-20T03:54:16.659Z,58.06
2023-03-20T03:57:29.635Z,57.84
2023-03-20T04:00:34.041Z,57.64
2023-03-20T04:03:40.141Z,57.46
2023-03-20T04:06:42.323Z,57.66
2023-03-20T04:09:43.956Z,57.80
2023-03-20T04:12:45.897Z,57.79
2023-03-20T04:15:47.412Z,57.85
2023-03-20T04:18:49.676Z,58.10
2023-03-20T04:21:51.992Z,58.14
2023-03-20T04:24:53.754Z,58.11
2023-03-20T04:27:55.692Z,57.77
2023-03-20T04:31:26.109Z,57.68
2023-03-20T04:34:40.088Z,57.86
2023-03-20T04:37:58.897Z,57.89
2023-03-20T04:41:01.451Z,58.15
2023-03-20T04:44:03.557Z,58.31
2023-03-20T04:47:07.141Z,58.08
2023-03-20T04:50:13.891Z,57.88
2023-03-20T04:53:15.954Z,57.98
2023-03-20T04:56:18.187Z,57.67
2023-03-20T04:59:20.946Z,57.69
2023-03-20T05:02:22.698Z,57.68
2023-03-20T05:05:24.619Z,57.92
2023-03-20T05:08:26.176Z,57.81
2023-03-20T05:11:32.036Z,57.64
2023-03-20T05:14:46.424Z,58.17
2023-03-20T05:18:12.301Z,57.90
2023-03-20T05:21:32.630Z,58.46
2023-03-20T05:24:46.783Z,57.96
2023-03-20T05:28:06.821Z,57.90
2023-03-20T05:31:23.187Z,58.44
2023-03-20T05:34:45.042Z,59.05
2023-03-20T05:37:53.813Z,58.86
2023-03-20T05:41:06.556Z,58.86
2023-03-20T05:44:18.272Z,58.80
2023-03-20T05:47:54.959Z,58.38
2023-03-20T05:51:02.621Z,58.38
2023-03-20T05:54:22.442Z,58.43
2023-03-20T05:57:59.455Z,58.25
2023-03-20T06:01:21.630Z,58.08
2023-03-20T06:04:37.355Z,58.27
2023-03-20T06:07:47.762Z,57.84
2023-03-20T06:10:51.547Z,57.80
2023-03-20T06:13:55.650Z,58.16
2023-03-20T06:17:01.583Z,58.36
2023-03-20T06:20:03.616Z,58.14
2023-03-20T06:23:06.232Z,58.05
2023-03-20T06:26:08.153Z,58.09
2023-03-20T06:29:22.045Z,58.31
2023-03-20T06:32:27.102Z,57.59
2023-03-20T06:35:32.076Z,58.08
2023-03-20T06:38:33.771Z,57.92
2023-03-20T06:41:41.417Z,58.05
2023-03-20T06:44:44.984Z,57.90
2023-03-20T06:48:09.238Z,57.68
2023-03-20T06:51:10.852Z,57.80
2023-03-20T06:54:23.140Z,57.82
2023-03-20T06:57:25.912Z,57.38
2023-03-20T07:00:27.536Z,57.06
2023-03-20T07:03:30.122Z,56.86
2023-03-20T07:06:33.562Z,56.65
2023-03-20T07:09:35.683Z,56.80
2023-03-20T07:12:37.668Z,56.72
2023-03-20T07:15:39.208Z,56.70
2023-03-20T07:18:42.424Z,56.17
2023-03-20T07:21:44.961Z,56.18
2023-03-20T07:24:48.846Z,56.05
2023-03-20T07:27:50.907Z,56.24
2023-03-20T07:30:56.085Z,56.14
2023-03-20T07:33:59.488Z,55.97
2023-03-20T07:37:01.339Z,56.04
2023-03-20T07:40:04.704Z,56.29
2023-03-20T07:43:08.772Z,57.00
2023-03-20T07:46:36.266Z,57.14
2023-03-20T07:49:39.348Z,57.15
2023-03-20T07:52:51.341Z,57.14
2023-03-20T07:55:55.814Z,56.89
2023-03-20T07:58:57.330Z,56.79
2023-03-20T08:01:58.851Z,56.53
2023-03-20T08:05:00.707Z,56.49
2023-03-20T08:08:02.475Z,56.27
2023-03-20T08:11:04.526Z,55.68
2023-03-20T08:14:06.073Z,55.24
2023-03-20T08:17:14.902Z,55.77
2023-03-20T08:20:17.561Z,56.19
2023-03-20T08:23:20.755Z,56.72
2023-03-20T08:26:23.058Z,56.84
2023-03-20T08:29:24.635Z,56.56
2023-03-20T08:32:26.560Z,55.77
2023-03-20T08:35:33.204Z,57.25
2023-03-20T08:38:35.963Z,55.29
2023-03-20T08:41:43.554Z,54.29
2023-03-20T08:44:45.707Z,53.92
2023-03-20T08:47:48.745Z,53.32
2023-03-20T08:50:50.447Z,57.83
2023-03-20T08:53:52.106Z,62.19
2023-03-20T08:56:53.659Z,63.25
2023-03-20T08:59:55.165Z,63.76
2023-03-20T09:02:57.095Z,63.40
2023-03-20T09:05:58.762Z,64.21
2023-03-20T09:09:00.419Z,63.85
2023-03-20T09:12:01.973Z,63.35
2023-03-20T09:15:05.184Z,63.71
2023-03-20T09:18:06.650Z,62.70
2023-03-20T09:21:08.325Z,62.29
2023-03-20T09:24:09.936Z,61.99
2023-03-20T09:27:13.859Z,61.37
2023-03-20T09:30:15.676Z,61.17
2023-03-20T09:33:18.545Z,60.75
2023-03-20T09:36:20.145Z,60.48
2023-03-20T09:39:21.694Z,60.31
2023-03-20T09:42:55.706Z,60.52
2023-03-20T09:46:19.882Z,60.28
2023-03-20T09:49:25.462Z,60.24
2023-03-20T09:52:36.094Z,59.98
2023-03-20T09:55:40.510Z,59.49
2023-03-20T09:58:42.668Z,58.93
2023-03-20T10:01:55.521Z,59.93
2023-03-20T10:04:57.443Z,59.02
2023-03-20T10:08:01.955Z,58.72
2023-03-20T10:11:22.863Z,58.08
2023-03-20T10:14:48.277Z,57.41
2023-03-20T10:18:08.196Z,58.08
2023-03-20T10:21:18.957Z,57.94
2023-03-20T10:24:32.085Z,57.97
2023-03-20T10:27:43.901Z,58.34
2023-03-20T10:31:09.833Z,57.42
2023-03-20T10:34:44.052Z,57.42
2023-03-20T10:38:02.899Z,57.17
2023-03-20T10:41:13.030Z,58.41
2023-03-20T10:44:19.020Z,57.87
2023-03-20T10:47:24.573Z,57.51
2023-03-20T10:50:36.355Z,57.78
2023-03-20T10:53:47.316Z,58.60
2023-03-20T10:56:51.929Z,58.85
2023-03-20T10:59:58.737Z,58.32
2023-03-20T11:03:00.247Z,58.55
2023-03-20T11:06:10.080Z,57.33
2023-03-20T11:09:19.148Z,57.52
2023-03-20T11:12:20.989Z,57.19
2023-03-20T11:15:32.691Z,56.22
2023-03-20T11:18:34.541Z,55.88
2023-03-20T11:21:46.699Z,55.26
2023-03-20T11:24:54.082Z,55.12
2023-03-20T11:27:56.474Z,54.77
2023-03-20T11:31:04.737Z,48.07
2023-03-20T11:34:06.771Z,46.18
2023-03-20T11:37:23.881Z,45.58
2023-03-20T11:40:31.785Z,45.16
2023-03-20T11:43:38.218Z,45.70
2023-03-20T11:46:39.934Z,45.01
2023-03-20T11:49:53.841Z,44.89
2023-03-20T11:52:55.792Z,45.00
2023-03-20T11:56:21.668Z,45.12
2023-03-20T11:59:27.378Z,44.42
2023-03-20T12:02:29.085Z,44.10
2023-03-20T12:05:39.533Z,44.03
2023-03-20T12:08:46.090Z,43.98
2023-03-20T12:12:00.136Z,44.08
2023-03-20T12:15:31.788Z,44.03
2023-03-20T12:18:45.487Z,43.39
2023-03-20T12:21:55.769Z,42.90
2023-03-20T12:25:23.219Z,42.46
2023-03-20T12:28:48.233Z,41.55
2023-03-20T12:31:58.343Z,41.94
2023-03-20T12:35:11.126Z,42.29
2023-03-20T12:38:23.540Z,43.42
2023-03-20T12:41:30.613Z,43.62
2023-03-20T12:44:51.077Z,43.34
2023-03-20T12:48:06.769Z,42.91
2023-03-20T12:51:24.461Z,43.69
2023-03-20T12:54:36.424Z,42.57
2023-03-20T12:58:27.065Z,41.96
2023-03-20T13:01:45.953Z,41.88
2023-03-20T13:04:55.887Z,41.67
2023-03-20T13:08:29.460Z,41.37
2023-03-20T13:11:39.145Z,42.45
2023-03-20T13:14:46.122Z,42.40
2023-03-20T13:17:59.830Z,42.63
2023-03-20T13:21:10.649Z,42.13
2023-03-20T13:24:26.004Z,41.43
2023-03-20T13:27:39.202Z,40.75
2023-03-20T13:30:54.018Z,41.94
2023-03-20T13:34:02.247Z,41.88
2023-03-20T13:37:44.267Z,41.34
2023-03-20T13:40:47.200Z,41.19
2023-03-20T13:43:54.201Z,41.21
2023-03-20T13:47:19.267Z,40.71
2023-03-20T13:50:39.050Z,41.02
2023-03-20T13:54:17.880Z,41.29
2023-03-20T13:57:46.367Z,41.44
2023-03-20T14:01:05.839Z,41.58
2023-03-20T14:04:16.040Z,41.24
2023-03-20T14:07:33.850Z,41.25
2023-03-20T14:10:36.968Z,41.52
2023-03-20T14:13:40.084Z,41.75
2023-03-20T14:16:42.334Z,42.00
2023-03-20T14:19:44.005Z,41.81
2023-03-20T14:22:46.314Z,41.50
2023-03-20T14:25:48.481Z,41.64
2023-03-20T14:29:13.258Z,41.60
2023-03-20T14:32:14.818Z,41.82
2023-03-20T14:35:26.788Z,41.91
2023-03-20T14:39:10.093Z,41.97
2023-03-20T14:42:37.161Z,42.04
2023-03-20T14:45:44.767Z,42.07
2023-03-20T14:48:52.572Z,42.39
2023-03-20T14:52:09.507Z,42.42
2023-03-20T14:55:32.515Z,41.81
2023-03-20T14:58:40.202Z,41.42
2023-03-20T15:01:46.303Z,41.40
2023-03-20T15:04:48.494Z,41.52
2023-03-20T15:07:50.256Z,41.69
2023-03-20T15:10:56.688Z,42.02
2023-03-20T15:14:00.964Z,41.98
2023-03-20T15:17:03.848Z,42.67
2023-03-20T15:20:25.113Z,43.19
2023-03-20T15:23:26.627Z,43.24
2023-03-20T15:26:30.217Z,43.58
2023-03-20T15:29:33.074Z,42.76
2023-03-20T15:32:35.796Z,43.15
2023-03-20T15:35:38.913Z,42.97
2023-03-20T15:38:40.564Z,42.48
2023-03-20T15:41:51.110Z,42.17
2023-03-20T15:44:55.860Z,41.99
2023-03-20T15:48:18.452Z,41.78
2023-03-20T15:51:24.497Z,41.55
2023-03-20T15:54:37.375Z,41.47
2023-03-20T15:57:41.064Z,41.40
2023-03-20T16:00:45.790Z,41.63
2023-03-20T16:03:48.051Z,41.49
2023-03-20T16:06:56.142Z,41.70
2023-03-20T16:09:59.411Z,42.10
2023-03-20T16:13:01.762Z,41.90
2023-03-20T16:16:04.849Z,41.77
2023-03-20T16:19:07.876Z,39.49
2023-03-20T16:22:18.678Z,38.93
2023-03-20T16:25:20.467Z,39.25
2023-03-20T16:28:21.954Z,40.03
2023-03-20T16:31:28.614Z,40.11
2023-03-20T16:34:36.183Z,40.19
2023-03-20T16:37:43.568Z,38.71
2023-03-20T16:40:45.295Z,38.61
2023-03-20T16:43:54.309Z,37.58
2023-03-20T16:47:20.916Z,32.10
2023-03-20T16:50:23.718Z,31.48
2023-03-20T16:53:28.852Z,32.14
2023-03-20T16:56:36.960Z,34.01
2023-03-20T16:59:40.043Z,35.65
2023-03-20T17:02:41.708Z,36.94
2023-03-20T17:06:06.604Z,38.25
2023-03-20T17:09:08.047Z,39.05
2023-03-20T17:12:18.213Z,39.76
2023-03-20T17:15:23.676Z,39.95
2023-03-20T17:18:25.736Z,40.38
2023-03-20T17:21:27.719Z,40.78
2023-03-20T17:24:29.263Z,41.48
2023-03-20T17:27:31.029Z,42.51
2023-03-20T17:30:32.491Z,43.57
2023-03-20T17:33:36.660Z,44.58
2023-03-20T17:36:38.729Z,45.40
2023-03-20T17:39:40.730Z,46.78
2023-03-20T17:42:43.268Z,47.37
2023-03-20T17:45:46.151Z,49.56
2023-03-20T17:48:49.015Z,50.40
2023-03-20T17:51:50.615Z,51.00
2023-03-20T17:54:52.683Z,50.59
2023-03-20T17:57:54.129Z,50.74
2023-03-20T18:00:55.879Z,53.60
2023-03-20T18:03:57.482Z,55.20
2023-03-20T18:06:58.967Z,53.72
2023-03-20T18:10:00.455Z,52.36
2023-03-20T18:13:02.133Z,52.72
2023-03-20T18:16:03.854Z,53.19
2023-03-20T18:19:05.506Z,53.54
2023-03-20T18:22:07.161Z,52.31
2023-03-20T18:25:09.176Z,53.26
2023-03-20T18:28:18.554Z,53.94
2023-03-20T18:31:21.019Z,54.10
2023-03-20T18:34:22.625Z,54.97
2023-03-20T18:37:24.065Z,55.40
2023-03-20T18:40:28.718Z,55.29
2023-03-20T18:43:30.301Z,55.05
2023-03-20T18:46:31.977Z,55.23
2023-03-20T18:49:38.514Z,55.69
2023-03-20T18:52:40.246Z,56.03
2023-03-20T18:55:42.338Z,56.64
2023-03-20T18:58:45.278Z,56.98
2023-03-20T19:01:46.832Z,62.21
2023-03-20T19:04:48.473Z,64.04
2023-03-20T19:07:50.474Z,65.58
2023-03-20T19:10:52.263Z,65.76
2023-03-20T19:13:54.284Z,66.58
2023-03-20T19:16:56.254Z,67.00
2023-03-20T19:19:57.783Z,67.46
2023-03-20T19:23:01.222Z,67.90
2023-03-20T19:26:02.679Z,68.05
2023-03-20T19:29:09.225Z,68.79
2023-03-20T19:32:11.486Z,69.60
2023-03-20T19:35:44.226Z,54.99
2023-03-20T19:38:37.437Z,53.27
2023-03-20T19:41:39.410Z,52.74
2023-03-20T19:44:40.919Z,52.36
2023-03-20T19:47:42.382Z,52.27
2023-03-20T19:50:49.341Z,52.38
2023-03-20T19:53:50.856Z,52.54
2023-03-20T19:56:52.398Z,52.11
2023-03-20T19:59:53.921Z,52.65
2023-03-20T20:02:55.951Z,52.69
2023-03-20T20:05:59.217Z,52.33
2023-03-20T20:09:01.582Z,52.37
2023-03-20T20:12:04.267Z,52.85
2023-03-20T20:15:07.944Z,52.51
2023-03-20T20:18:09.548Z,52.98
2023-03-20T20:22:02.553Z,52.90
2023-03-20T20:24:33.885Z,52.43
2023-03-20T20:27:36.030Z,52.40
2023-03-20T20:30:38.918Z,52.33
2023-03-20T20:33:41.600Z,52.68
2023-03-20T20:37:29.099Z,52.51
2023-03-20T20:40:06.045Z,52.74
2023-03-20T20:43:10.277Z,52.82
2023-03-20T20:46:12.348Z,52.81
2023-03-20T20:49:19.585Z,53.08
2023-03-20T20:52:21.769Z,52.93
2023-03-20T20:55:25.035Z,53.51
2023-03-20T20:58:26.760Z,53.56
2023-03-20T21:01:28.448Z,53.50
2023-03-20T21:04:30.047Z,53.55
2023-03-20T21:07:31.650Z,53.75
2023-03-20T21:10:33.196Z,53.85
2023-03-20T21:13:36.771Z,54.03
2023-03-20T21:16:38.388Z,53.96
2023-03-20T21:19:41.187Z,54.12
2023-03-20T21:22:42.708Z,54.02
2023-03-20T21:25:47.827Z,54.20
2023-03-20T21:28:49.649Z,54.61
2023-03-20T21:31:51.663Z,54.50
2023-03-20T21:34:53.992Z,54.31
2023-03-20T21:41:17.517Z,53.95
2023-03-20T21:44:50.255Z,54.11
2023-03-20T21:48:23.591Z,53.74
2023-03-20T21:58:29.203Z,53.81
2023-03-20T22:01:48.912Z,53.96
2023-03-20T22:08:46.527Z,53.75
2023-03-20T22:18:42.232Z,53.47
2023-03-20T22:21:57.370Z,53.49
2023-03-20T22:32:01.985Z,53.76
2023-03-20T22:35:37.961Z,54.22
2023-03-20T22:42:13.902Z,54.46
2023-03-20T22:45:01.394Z,54.23
2023-03-20T22:48:05.542Z,54.48
2023-03-20T22:51:07.612Z,54.65
2023-03-20T22:54:09.120Z,54.98
2023-03-20T22:57:10.848Z,55.14
2023-03-20T23:00:14.360Z,55.00
2023-03-20T23:03:29.684Z,55.50
2023-03-20T23:06:38.185Z,55.55
2023-03-20T23:09:39.705Z,55.37
2023-03-20T23:12:43.899Z,55.82
2023-03-20T23:15:46.905Z,55.64
2023-03-20T23:18:48.456Z,55.72
2023-03-20T23:21:49.950Z,55.86
2023-03-20T23:24:52.128Z,55.76
2023-03-20T23:27:58.112Z,55.85
2023-03-20T23:31:10.492Z,55.69
2023-03-20T23:34:12.514Z,55.76
2023-03-20T23:37:14.287Z,55.56
2023-03-20T23:40:17.095Z,55.59
2023-03-20T23:43:19.388Z,55.61
2023-03-20T23:46:20.948Z,55.93
2023-03-20T23:49:22.549Z,55.77
2023-03-20T23:52:23.995Z,55.75
2023-03-20T23:55:25.539Z,55.88
2023-03-20T23:58:27.547Z,56.11
